Time;durP1;ratioP1;P1;durP2;ratioP2;P2;SDS_P1;SDS_P2;PMS_P1;PMS_P2;Temp;Humidity;BMP_temperature;BMP_pressure;BME280_temperature;BME280_humidity;BME280_pressure;Samples;Min_cycle;Max_cycle;Signal;HPM_P1;HPM_P2
2022/03/26 00:01:20;;;;;;;8.32;7.63;;;;;;;7.47;51.22;99716.44;4117912;28;20670;-58
2022/03/26 00:03:22;;;;;;;7.78;6.25;;;;;;;7.49;51.87;99717.09;4119572;28;20210;-58
2022/03/26 00:05:23;;;;;;;10.07;9.15;;;;;;;7.50;51.82;99724.22;4106111;28;20214;-57
2022/03/26 00:07:26;;;;;;;7.95;6.97;;;;;;;7.46;51.88;99717.50;4121636;28;20202;-57
2022/03/26 00:09:27;;;;;;;8.15;7.45;;;;;;;7.45;51.90;99715.81;4121388;28;20285;-58
2022/03/26 00:11:29;;;;;;;8.82;7.75;;;;;;;7.33;52.13;99711.97;4123365;28;20218;-58
2022/03/26 00:13:31;;;;;;;9.75;8.55;;;;;;;7.25;52.44;99714.84;4104452;28;20700;-59
2022/03/26 00:15:33;;;;;;;10.45;8.10;;;;;;;7.20;52.46;99726.34;4090652;28;20755;-58
2022/03/26 00:17:35;;;;;;;10.68;9.43;;;;;;;7.16;52.67;99718.78;4105265;28;20908;-57
2022/03/26 00:19:37;;;;;;;9.63;8.57;;;;;;;7.07;53.45;99723.53;4108198;28;20218;-58
2022/03/26 00:21:38;;;;;;;13.18;9.40;;;;;;;7.03;53.01;99724.13;4118671;28;20238;-58
2022/03/26 00:23:40;;;;;;;8.70;7.18;;;;;;;6.96;53.28;99720.50;4108512;28;20643;-57
2022/03/26 00:25:42;;;;;;;7.95;7.15;;;;;;;6.94;53.42;99722.56;4107233;28;20211;-58
2022/03/26 00:27:44;;;;;;;7.68;6.88;;;;;;;6.95;53.57;99725.09;4104470;28;20251;-58
2022/03/26 00:29:45;;;;;;;12.35;6.65;;;;;;;6.90;53.62;99715.84;4106452;28;20584;-58
2022/03/26 00:31:47;;;;;;;9.95;8.82;;;;;;;6.88;53.43;99734.28;4105698;28;20769;-58
2022/03/26 00:33:49;;;;;;;9.90;8.88;;;;;;;6.90;52.98;99732.19;4105132;28;20258;-57
2022/03/26 00:35:51;;;;;;;8.70;7.82;;;;;;;6.88;53.20;99735.09;4102855;28;20215;-56
2022/03/26 00:37:53;;;;;;;9.90;8.13;;;;;;;6.80;53.23;99729.81;4119931;28;20229;-56
2022/03/26 00:39:55;;;;;;;10.30;8.98;;;;;;;6.79;53.55;99735.44;4122185;28;20237;-60
2022/03/26 00:41:57;;;;;;;9.40;8.40;;;;;;;6.74;53.21;99724.28;4105164;28;20488;-57
2022/03/26 00:43:59;;;;;;;13.80;8.65;;;;;;;6.72;53.54;99729.94;4121566;28;20218;-59
2022/03/26 00:46:00;;;;;;;8.40;7.20;;;;;;;6.70;53.84;99733.91;4123181;28;20245;-57
2022/03/26 00:48:04;;;;;;;11.18;7.63;;;;;;;6.64;54.08;99727.38;4123029;28;20648;-58
2022/03/26 00:50:07;;;;;;;11.10;7.57;;;;;;;6.62;53.94;99734.03;4119811;28;20881;-60
2022/03/26 00:52:08;;;;;;;8.60;7.40;;;;;;;6.69;54.25;99729.50;4103351;28;20273;-58
2022/03/26 00:54:10;;;;;;;7.50;6.22;;;;;;;6.59;54.02;99724.38;4108227;28;20219;-64
2022/03/26 00:56:12;;;;;;;10.60;7.72;;;;;;;6.60;53.92;99730.66;4122233;28;20249;-62
2022/03/26 00:58:14;;;;;;;7.43;6.82;;;;;;;6.58;53.95;99732.72;4108220;28;20651;-58
2022/03/26 01:00:16;;;;;;;8.73;7.40;;;;;;;6.60;53.64;99730.66;4107733;28;20639;-60
2022/03/26 01:02:18;;;;;;;8.20;6.45;;;;;;;6.54;53.74;99731.44;4109090;28;20237;-60
2022/03/26 01:04:19;;;;;;;9.55;7.28;;;;;;;6.54;53.71;99732.28;4124327;28;20345;-58
2022/03/26 01:06:21;;;;;;;10.80;8.32;;;;;;;6.53;53.90;99729.75;4124790;28;20310;-61
2022/03/26 01:08:23;;;;;;;8.02;7.22;;;;;;;6.46;53.61;99723.41;4126259;28;20662;-58
2022/03/26 01:10:25;;;;;;;6.07;5.50;;;;;;;6.43;53.66;99729.25;4123736;28;20695;-64
2022/03/26 01:12:27;;;;;;;9.13;7.45;;;;;;;6.38;53.59;99737.13;4122925;28;20229;-59
2022/03/26 01:14:29;;;;;;;9.85;8.32;;;;;;;6.35;53.55;99726.66;4110249;28;20230;-57
2022/03/26 01:16:32;;;;;;;8.13;7.35;;;;;;;6.34;53.84;99724.94;4124226;28;20218;-59
2022/03/26 01:18:34;;;;;;;7.30;6.47;;;;;;;6.31;53.87;99725.34;4126385;28;20237;-59
2022/03/26 01:20:36;;;;;;;8.63;7.63;;;;;;;6.29;53.84;99727.44;4113261;28;20206;-58
2022/03/26 01:22:38;;;;;;;11.90;7.78;;;;;;;6.30;53.86;99729.94;4107828;28;20265;-57
2022/03/26 01:24:40;;;;;;;8.43;7.57;;;;;;;6.28;53.74;99723.03;4108556;28;20654;-62
2022/03/26 01:26:41;;;;;;;11.02;7.43;;;;;;;6.27;54.04;99729.47;4123256;28;20272;-59
2022/03/26 01:28:44;;;;;;;7.93;7.22;;;;;;;6.27;53.75;99726.75;4111627;28;20245;-59
2022/03/26 01:30:46;;;;;;;9.40;7.97;;;;;;;6.25;53.58;99723.41;4122654;28;20252;-61
2022/03/26 01:32:49;;;;;;;8.52;6.75;;;;;;;6.22;53.64;99721.91;4125294;28;20237;-63
2022/03/26 01:34:50;;;;;;;7.88;7.10;;;;;;;6.19;53.76;99714.16;4114992;28;20217;-60
2022/03/26 01:36:53;;;;;;;7.78;6.57;;;;;;;6.20;53.66;99717.69;4128081;28;20249;-59
2022/03/26 01:38:54;;;;;;;11.18;7.90;;;;;;;6.25;53.56;99726.13;4128733;28;20273;-59
2022/03/26 01:40:56;;;;;;;7.78;7.07;;;;;;;6.29;53.48;99714.66;4094903;28;20631;-59
2022/03/26 01:42:59;;;;;;;8.07;6.72;;;;;;;6.28;53.49;99720.31;4127675;28;20229;-62
2022/03/26 01:45:01;;;;;;;8.77;7.90;;;;;;;6.24;53.46;99719.00;4119444;28;20692;-62
2022/03/26 01:47:04;;;;;;;8.70;7.90;;;;;;;6.21;53.87;99716.66;4107894;28;20245;-58
2022/03/26 01:49:05;;;;;;;7.75;6.95;;;;;;;6.10;54.13;99711.75;4122242;28;22140;-57
2022/03/26 01:51:16;;;;;;;9.02;8.23;;;;;;;6.03;54.22;99710.84;4106712;28;20264;-57
2022/03/26 01:53:17;;;;;;;8.68;7.78;;;;;;;5.95;54.28;99713.69;4123189;28;20684;-57
2022/03/26 01:55:20;;;;;;;9.15;7.40;;;;;;;5.93;54.69;99713.00;4102901;28;20563;-58
2022/03/26 01:57:22;;;;;;;8.55;7.55;;;;;;;5.88;54.22;99701.91;4106728;28;20215;-57
2022/03/26 01:59:24;;;;;;;6.72;5.95;;;;;;;5.84;54.62;99708.72;4121370;28;20202;-57
2022/03/26 02:01:26;;;;;;;8.73;7.72;;;;;;;5.84;54.88;99711.44;4103436;28;20809;-58
2022/03/26 02:03:28;;;;;;;7.63;6.93;;;;;;;5.81;54.94;99712.66;4104825;28;20281;-57
2022/03/26 02:05:31;;;;;;;7.68;6.97;;;;;;;5.79;54.75;99708.41;4123127;28;20305;-59
2022/03/26 02:07:33;;;;;;;9.10;8.20;;;;;;;5.71;54.82;99711.25;4107978;28;20238;-58
2022/03/26 02:09:35;;;;;;;9.68;7.25;;;;;;;5.70;54.99;99713.09;4123203;28;20297;-58
2022/03/26 02:11:39;;;;;;;7.30;6.63;;;;;;;5.66;55.46;99710.97;4122725;28;20228;-57
2022/03/26 02:13:52;;;;;;;7.80;6.25;;;;;;;5.57;55.35;99706.69;4108869;28;20215;-58
2022/03/26 02:15:53;;;;;;;10.90;7.75;;;;;;;5.54;55.35;99707.06;4123674;28;20213;-57
2022/03/26 02:17:55;;;;;;;8.48;7.60;;;;;;;5.53;55.42;99713.50;4107483;28;22131;-57
2022/03/26 02:19:59;;;;;;;8.48;7.68;;;;;;;5.53;55.41;99713.50;4089161;28;20224;-57
2022/03/26 02:22:00;;;;;;;8.27;6.60;;;;;;;5.50;55.07;99713.91;4105532;28;20239;-57
2022/03/26 02:24:03;;;;;;;7.45;6.70;;;;;;;5.50;55.62;99713.91;4121150;28;20217;-57
2022/03/26 02:26:05;;;;;;;8.88;7.78;;;;;;;5.50;55.54;99719.34;4108779;28;20234;-57
2022/03/26 02:28:08;;;;;;;10.00;8.00;;;;;;;5.47;55.78;99714.28;4119830;28;20209;-57
2022/03/26 02:30:10;;;;;;;7.35;6.65;;;;;;;5.40;55.96;99716.06;4108931;28;20281;-58
2022/03/26 02:32:11;;;;;;;7.38;6.70;;;;;;;5.38;55.63;99718.13;4122770;28;20542;-57
2022/03/26 02:34:13;;;;;;;9.18;7.50;;;;;;;5.33;55.76;99707.84;4125885;28;20668;-58
2022/03/26 02:36:15;;;;;;;10.63;7.25;;;;;;;5.32;56.04;99718.88;4121501;28;20285;-57
2022/03/26 02:38:18;;;;;;;7.78;7.03;;;;;;;5.33;55.83;99718.69;4108112;28;20206;-58
2022/03/26 02:40:20;;;;;;;7.30;6.47;;;;;;;5.33;56.15;99717.84;4108546;28;20294;-58
2022/03/26 02:42:22;;;;;;;8.25;7.50;;;;;;;5.25;56.22;99718.78;4121928;28;21214;-58
2022/03/26 02:44:24;;;;;;;9.05;7.65;;;;;;;5.23;56.34;99717.28;4105963;28;20299;-58
2022/03/26 02:46:28;;;;;;;7.68;6.97;;;;;;;5.19;56.22;99715.97;4107017;28;20238;-57
2022/03/26 02:48:31;;;;;;;6.80;6.20;;;;;;;5.16;56.45;99721.78;4122805;28;20272;-58
2022/03/26 02:50:33;;;;;;;7.65;6.78;;;;;;;5.10;56.61;99722.50;4122616;28;20213;-58
2022/03/26 02:52:36;;;;;;;7.00;5.95;;;;;;;5.02;56.53;99716.31;4106120;28;20226;-58
2022/03/26 02:54:38;;;;;;;9.38;6.97;;;;;;;4.98;56.57;99718.56;4124022;28;20288;-58
2022/03/26 02:56:39;;;;;;;10.65;7.93;;;;;;;4.93;56.64;99715.56;4103604;28;20640;-58
2022/03/26 02:58:41;;;;;;;10.05;8.57;;;;;;;4.88;56.71;99707.13;4102469;28;20206;-57
2022/03/26 03:00:43;;;;;;;8.27;7.50;;;;;;;4.87;56.97;99705.44;4124738;28;20206;-57
2022/03/26 03:02:45;;;;;;;7.28;6.45;;;;;;;4.91;56.98;99698.66;4106776;28;20230;-57
2022/03/26 03:04:47;;;;;;;12.13;6.40;;;;;;;4.85;56.74;99702.09;4121059;28;20580;-58
2022/03/26 03:06:49;;;;;;;6.97;6.25;;;;;;;4.85;56.91;99712.09;4120589;28;20221;-57
2022/03/26 03:08:51;;;;;;;9.95;7.78;;;;;;;4.83;57.04;99714.16;4125196;28;20694;-58
2022/03/26 03:10:53;;;;;;;9.82;6.07;;;;;;;4.82;56.75;99707.91;4103113;28;20242;-56
2022/03/26 03:12:55;;;;;;;6.93;6.32;;;;;;;4.81;56.78;99706.19;4108624;28;20337;-57
2022/03/26 03:14:56;;;;;;;12.05;8.98;;;;;;;4.86;56.65;99708.38;4120762;28;20238;-59
2022/03/26 03:16:58;;;;;;;7.03;6.43;;;;;;;4.87;56.44;99694.59;4123875;28;20209;-57
2022/03/26 03:19:00;;;;;;;8.77;7.93;;;;;;;4.92;56.16;99692.19;4121247;28;20214;-57
2022/03/26 03:21:01;;;;;;;6.82;6.07;;;;;;;4.93;56.04;99693.03;4108447;28;20230;-57
2022/03/26 03:23:03;;;;;;;7.43;6.53;;;;;;;4.91;56.46;99695.94;4105997;28;20313;-56
2022/03/26 03:25:05;;;;;;;7.03;6.32;;;;;;;4.89;56.45;99687.16;4120777;28;20702;-57
2022/03/26 03:27:07;;;;;;;7.00;4.82;;;;;;;4.91;56.33;99693.22;4122904;28;21276;-59
2022/03/26 03:29:09;;;;;;;8.40;6.78;;;;;;;4.86;56.55;99692.09;4124290;28;20758;-58
2022/03/26 03:31:10;;;;;;;7.25;6.28;;;;;;;4.75;56.57;99695.25;4120128;28;20732;-58
2022/03/26 03:33:12;;;;;;;5.93;5.43;;;;;;;4.72;56.34;99696.47;4091420;28;20223;-57
2022/03/26 03:35:14;;;;;;;8.93;7.95;;;;;;;4.72;56.33;99696.47;4107215;28;20669;-58
2022/03/26 03:37:15;;;;;;;8.27;7.10;;;;;;;4.72;56.42;99690.19;4121571;28;20230;-57
2022/03/26 03:39:17;;;;;;;6.78;6.13;;;;;;;4.69;56.77;99695.97;4106022;28;20302;-58
2022/03/26 03:41:19;;;;;;;7.50;6.75;;;;;;;4.65;56.98;99690.09;4104370;28;20226;-58
2022/03/26 03:43:22;;;;;;;9.48;6.68;;;;;;;4.61;56.83;99688.75;4124450;28;20238;-57
2022/03/26 03:45:25;;;;;;;8.15;7.38;;;;;;;4.53;57.12;99683.41;4118789;28;20206;-56
2022/03/26 03:47:26;;;;;;;7.13;6.45;;;;;;;4.51;56.67;99684.63;4103532;28;20210;-57
2022/03/26 03:49:31;;;;;;;8.52;7.72;;;;;;;4.49;57.09;99690.25;4101922;28;20206;-56
2022/03/26 03:51:33;;;;;;;6.78;6.22;;;;;;;4.46;56.86;99685.19;4103756;28;20231;-58
2022/03/26 03:53:35;;;;;;;6.65;6.05;;;;;;;4.46;57.40;99682.47;4102418;28;20233;-59
2022/03/26 03:55:36;;;;;;;8.40;5.78;;;;;;;4.43;57.17;99674.72;4120421;28;20638;-58
2022/03/26 03:57:42;;;;;;;6.15;4.55;;;;;;;4.39;57.29;99686.94;4122820;28;20202;-58
2022/03/26 03:59:44;;;;;;;7.88;7.07;;;;;;;4.40;57.15;99683.19;4122858;28;20679;-58
2022/03/26 04:01:45;;;;;;;6.97;6.18;;;;;;;4.36;56.99;99681.03;4103987;28;20277;-57
2022/03/26 04:03:48;;;;;;;5.63;5.05;;;;;;;4.30;57.52;99693.47;4104173;28;20207;-57
2022/03/26 04:05:49;;;;;;;6.20;5.60;;;;;;;4.15;58.04;99681.69;4106328;28;20214;-57
2022/03/26 04:07:51;;;;;;;5.57;5.03;;;;;;;4.14;58.22;99690.03;4122273;28;20206;-60
2022/03/26 04:09:53;;;;;;;8.73;6.95;;;;;;;4.14;57.62;99685.44;4110476;28;20624;-57
2022/03/26 04:11:55;;;;;;;8.27;6.90;;;;;;;4.15;57.91;99687.13;4124401;28;20690;-57
2022/03/26 04:13:57;;;;;;;5.32;4.85;;;;;;;4.09;58.32;99687.88;4122005;28;20240;-59
2022/03/26 04:15:59;;;;;;;5.53;4.93;;;;;;;4.06;58.07;99682.78;4103484;28;20224;-59
2022/03/26 04:18:01;;;;;;;9.18;7.47;;;;;;;4.02;58.04;99684.19;4121194;28;20210;-59
2022/03/26 04:20:06;;;;;;;7.57;6.50;;;;;;;3.97;58.24;99683.88;4121183;28;20209;-59
2022/03/26 04:22:08;;;;;;;6.07;4.95;;;;;;;3.98;57.84;99700.97;4102504;28;20227;-57
2022/03/26 04:24:10;;;;;;;7.30;6.63;;;;;;;4.01;58.40;99700.63;4108406;28;20202;-57
2022/03/26 04:26:11;;;;;;;7.25;6.15;;;;;;;3.99;58.45;99700.78;4122673;28;20218;-57
2022/03/26 04:28:13;;;;;;;8.73;6.30;;;;;;;3.96;57.88;99695.75;4120341;28;20225;-57
2022/03/26 04:30:16;;;;;;;8.05;7.30;;;;;;;3.95;58.36;99704.03;4123100;28;20206;-57
2022/03/26 04:32:18;;;;;;;8.50;7.78;;;;;;;3.93;58.22;99704.22;4106013;28;20230;-57
2022/03/26 04:34:19;;;;;;;12.00;7.43;;;;;;;3.90;57.86;99707.28;4121163;28;20256;-57
2022/03/26 04:36:22;;;;;;;8.77;6.90;;;;;;;3.84;58.59;99702.59;4108807;28;20272;-58
2022/03/26 04:38:23;;;;;;;6.97;6.18;;;;;;;3.78;58.64;99708.72;4109036;28;20213;-57
2022/03/26 04:40:26;;;;;;;7.00;6.30;;;;;;;3.80;58.72;99713.94;4123819;28;20745;-60
2022/03/26 04:42:28;;;;;;;7.20;6.13;;;;;;;3.76;58.41;99702.63;4107986;28;20563;-57
2022/03/26 04:44:29;;;;;;;10.40;6.40;;;;;;;3.72;59.00;99705.84;4109647;28;20218;-56
2022/03/26 04:46:32;;;;;;;10.45;8.45;;;;;;;3.64;59.19;99704.06;4121735;28;20238;-56
2022/03/26 04:48:34;;;;;;;10.32;7.93;;;;;;;3.59;59.01;99703.72;4108848;28;20206;-57
2022/03/26 04:50:36;;;;;;;6.20;5.68;;;;;;;3.53;59.13;99700.91;4123010;28;20256;-57
2022/03/26 04:52:38;;;;;;;6.18;4.97;;;;;;;3.52;59.53;99705.47;4108626;28;20226;-56
2022/03/26 04:54:42;;;;;;;7.75;7.05;;;;;;;3.54;59.27;99703.41;4109858;28;20921;-57
2022/03/26 04:56:44;;;;;;;6.45;5.85;;;;;;;3.55;59.14;99705.09;4120732;28;20221;-57
2022/03/26 04:58:46;;;;;;;7.47;6.75;;;;;;;3.51;59.06;99706.50;4126644;28;20233;-57
2022/03/26 05:00:48;;;;;;;7.68;6.68;;;;;;;3.50;59.47;99712.06;4124487;28;20249;-59
2022/03/26 05:02:50;;;;;;;6.57;6.03;;;;;;;3.48;59.43;99720.34;4111554;28;20239;-58
2022/03/26 05:04:51;;;;;;;6.10;5.60;;;;;;;3.44;59.46;99732.56;4109607;28;20219;-58
2022/03/26 05:06:53;;;;;;;6.72;5.57;;;;;;;3.47;59.40;99728.66;4125615;28;20265;-59
2022/03/26 05:08:55;;;;;;;8.70;7.35;;;;;;;3.42;59.35;99729.19;4125921;28;20604;-58
2022/03/26 05:10:56;;;;;;;10.00;7.38;;;;;;;3.39;59.18;99726.81;4111513;28;20306;-59
2022/03/26 05:12:59;;;;;;;8.32;7.22;;;;;;;3.41;59.73;99734.78;4109381;28;20199;-58
2022/03/26 05:15:01;;;;;;;5.68;4.82;;;;;;;3.44;59.33;99734.41;4126974;28;20213;-57
2022/03/26 05:17:03;;;;;;;9.68;5.70;;;;;;;3.42;59.55;99734.59;4109059;28;20210;-60
2022/03/26 05:19:04;;;;;;;7.78;7.07;;;;;;;3.44;58.97;99729.84;4122964;28;20214;-60
2022/03/26 05:21:07;;;;;;;7.45;6.38;;;;;;;3.43;59.20;99732.72;4124333;28;20229;-59
2022/03/26 05:23:09;;;;;;;7.53;6.72;;;;;;;3.40;59.10;99733.91;4110529;28;20696;-60
2022/03/26 05:25:12;;;;;;;6.38;5.57;;;;;;;3.36;59.52;99729.91;4106544;28;20753;-62
2022/03/26 05:27:14;;;;;;;6.95;6.10;;;;;;;3.31;59.63;99734.97;4106253;28;20203;-61
2022/03/26 05:29:16;;;;;;;6.80;6.13;;;;;;;3.32;59.27;99747.47;4108456;28;20250;-60
2022/03/26 05:31:18;;;;;;;9.90;5.88;;;;;;;3.31;59.16;99736.81;4121234;28;20241;-63
2022/03/26 05:33:20;;;;;;;8.98;7.45;;;;;;;3.22;59.98;99735.16;4125623;28;20683;-63
2022/03/26 05:35:22;;;;;;;10.35;7.05;;;;;;;3.23;60.02;99731.44;4106527;28;20218;-61
2022/03/26 05:37:23;;;;;;;11.27;9.10;;;;;;;3.24;59.90;99747.50;4126924;28;20221;-59
2022/03/26 05:39:25;;;;;;;5.20;4.70;;;;;;;3.25;59.65;99751.03;4108636;28;20289;-58
2022/03/26 05:41:27;;;;;;;6.45;5.85;;;;;;;3.25;59.69;99751.91;4110363;28;20285;-60
2022/03/26 05:43:29;;;;;;;6.63;5.93;;;;;;;3.27;59.63;99749.03;4127508;28;20218;-58
2022/03/26 05:45:31;;;;;;;7.65;7.03;;;;;;;3.30;59.93;99754.94;4124455;28;20653;-58
2022/03/26 05:47:34;;;;;;;5.35;4.85;;;;;;;3.33;59.67;99759.97;4122411;28;20210;-59
2022/03/26 05:49:39;;;;;;;7.47;6.85;;;;;;;3.25;59.33;99757.31;4127733;28;20238;-58
2022/03/26 05:51:41;;;;;;;6.30;5.68;;;;;;;3.28;59.64;99756.94;4122770;28;20225;-59
2022/03/26 05:53:44;;;;;;;8.93;6.90;;;;;;;3.27;59.71;99763.38;4107399;28;20207;-58
2022/03/26 05:55:46;;;;;;;7.18;6.57;;;;;;;3.26;59.59;99764.41;4122192;28;20660;-60
2022/03/26 05:57:48;;;;;;;6.68;6.07;;;;;;;3.27;60.01;99759.84;4093474;28;20286;-58
2022/03/26 05:59:50;;;;;;;7.38;5.13;;;;;;;3.26;59.66;99764.41;4093495;28;20290;-59
2022/03/26 06:01:54;;;;;;;9.23;5.53;;;;;;;3.29;60.21;99761.38;4122178;28;20723;-58
2022/03/26 06:03:56;;;;;;;6.20;5.60;;;;;;;3.34;60.24;99760.84;4124899;28;20715;-59
2022/03/26 06:05:58;;;;;;;8.07;7.25;;;;;;;3.45;60.16;99772.13;4108969;28;20238;-59
2022/03/26 06:08:00;;;;;;;5.93;5.30;;;;;;;3.54;61.12;99765.66;4124705;28;20613;-59
2022/03/26 06:10:02;;;;;;;6.72;4.82;;;;;;;3.63;60.38;99766.47;4110136;28;20300;-61
2022/03/26 06:12:06;;;;;;;5.68;5.22;;;;;;;3.73;59.82;99767.94;4121874;28;20353;-59
2022/03/26 06:14:08;;;;;;;14.35;7.15;;;;;;;3.91;60.24;99760.41;4106175;28;20211;-58
2022/03/26 06:16:10;;;;;;;7.50;5.13;;;;;;;4.18;59.87;99762.63;4125630;28;20237;-60
2022/03/26 06:18:12;;;;;;;6.93;6.32;;;;;;;4.24;59.53;99772.75;4118808;28;20257;-61
2022/03/26 06:20:14;;;;;;;6.88;6.28;;;;;;;4.41;59.41;99765.34;4083870;28;20681;-63
2022/03/26 06:22:16;;;;;;;8.07;7.20;;;;;;;4.38;59.90;99779.22;4103932;28;20286;-60
2022/03/26 06:24:18;;;;;;;9.57;8.13;;;;;;;4.40;59.71;99777.22;4104091;28;20230;-61
2022/03/26 06:26:19;;;;;;;8.23;7.43;;;;;;;4.59;59.34;99779.44;4107401;28;20203;-60
2022/03/26 06:28:21;;;;;;;9.38;7.45;;;;;;;5.37;58.74;99779.69;4117274;28;20222;-63
2022/03/26 06:30:23;;;;;;;6.38;5.80;;;;;;;5.66;57.81;99778.84;4099588;28;20668;-61
2022/03/26 06:32:27;;;;;;;8.35;6.30;;;;;;;5.58;57.28;99782.53;4123095;28;20237;-57
2022/03/26 06:34:30;;;;;;;8.55;7.57;;;;;;;6.21;57.27;99785.47;4122926;28;20244;-62
2022/03/26 06:36:34;;;;;;;8.43;7.32;;;;;;;6.60;55.85;99785.03;4104576;28;20276;-61
2022/03/26 06:38:38;;;;;;;7.38;6.78;;;;;;;7.58;55.75;99782.09;4100320;28;20807;-58
2022/03/26 06:40:40;;;;;;;14.23;7.15;;;;;;;7.30;55.73;99783.16;4120204;28;20206;-59
2022/03/26 06:42:42;;;;;;;7.90;7.15;;;;;;;7.72;54.89;99788.47;4122810;28;20213;-58
2022/03/26 06:44:50;;;;;;;8.82;7.28;;;;;;;8.09;54.45;99786.13;4108677;28;20701;-59
2022/03/26 06:46:52;;;;;;;8.38;7.50;;;;;;;7.68;54.08;99789.91;4123089;28;20217;-61
2022/03/26 06:48:54;;;;;;;6.72;6.10;;;;;;;8.10;53.45;99782.34;4105788;28;20265;-59
2022/03/26 06:50:55;;;;;;;7.53;6.75;;;;;;;8.81;52.91;99795.41;4108238;28;20576;-59
2022/03/26 06:52:58;;;;;;;10.50;8.75;;;;;;;9.27;51.31;99795.44;4123042;28;20776;-60
2022/03/26 06:55:02;;;;;;;11.45;9.65;;;;;;;10.24;49.88;99786.22;4092905;28;20218;-60
2022/03/26 06:57:04;;;;;;;9.10;8.20;;;;;;;10.34;49.63;99795.66;4124077;28;20206;-61
2022/03/26 06:59:06;;;;;;;8.18;7.28;;;;;;;11.11;48.44;99797.06;4104618;28;20695;-58
2022/03/26 07:01:07;;;;;;;7.70;7.05;;;;;;;10.69;47.58;99801.59;4120400;28;20253;-57
2022/03/26 07:03:09;;;;;;;8.52;7.32;;;;;;;11.85;45.87;99803.38;4121815;28;20222;-58
2022/03/26 07:05:12;;;;;;;8.82;7.57;;;;;;;11.00;47.01;99799.69;4121235;28;20210;-58
2022/03/26 07:07:14;;;;;;;6.72;6.10;;;;;;;10.13;49.16;99800.56;4089783;28;20232;-57
2022/03/26 07:09:15;;;;;;;7.20;6.22;;;;;;;9.71;50.25;99798.34;4122874;28;20210;-56
2022/03/26 07:11:17;;;;;;;8.65;6.35;;;;;;;9.41;50.00;99799.88;4121980;28;20320;-56
2022/03/26 07:13:19;;;;;;;16.30;7.55;;;;;;;9.39;51.27;99801.94;4110775;28;20696;-57
2022/03/26 07:15:21;;;;;;;7.60;6.90;;;;;;;9.39;51.41;99797.34;4107328;28;20589;-57
2022/03/26 07:17:23;;;;;;;6.30;5.75;;;;;;;9.95;50.95;99803.13;4101842;28;20228;-58
2022/03/26 07:19:24;;;;;;;6.90;6.40;;;;;;;10.09;49.59;99799.34;4105270;28;20218;-57
2022/03/26 07:21:26;;;;;;;7.13;6.38;;;;;;;10.36;48.17;99798.16;4103130;28;20289;-57
2022/03/26 07:23:29;;;;;;;7.18;6.32;;;;;;;10.39;47.61;99803.19;4105849;28;20254;-56
2022/03/26 07:25:30;;;;;;;12.27;7.32;;;;;;;10.39;46.96;99805.94;4109460;28;20282;-56
2022/03/26 07:27:34;;;;;;;7.93;5.97;;;;;;;11.41;45.96;99805.47;4123942;28;20252;-57
2022/03/26 07:29:38;;;;;;;10.45;6.75;;;;;;;12.10;44.66;99804.16;4126981;28;20621;-57
2022/03/26 07:31:40;;;;;;;8.85;6.45;;;;;;;12.66;43.33;99793.75;4109391;28;20285;-57
2022/03/26 07:33:42;;;;;;;7.25;5.88;;;;;;;12.51;43.34;99801.53;4111842;28;20787;-60
2022/03/26 07:35:44;;;;;;;5.32;4.85;;;;;;;13.27;43.01;99807.25;4124826;28;20213;-57
2022/03/26 07:37:46;;;;;;;9.88;6.25;;;;;;;12.10;43.99;99812.41;4126918;28;20238;-61
2022/03/26 07:39:48;;;;;;;8.07;6.68;;;;;;;11.93;44.86;99802.25;4124879;28;20926;-58
2022/03/26 07:41:53;;;;;;;6.78;5.22;;;;;;;13.54;42.49;99803.81;4125443;28;20267;-57
2022/03/26 07:43:54;;;;;;;7.60;6.00;;;;;;;14.50;41.31;99804.97;4121905;28;20218;-56
2022/03/26 07:45:56;;;;;;;5.60;5.10;;;;;;;14.73;40.48;99804.91;4110517;28;20574;-57
2022/03/26 07:47:59;;;;;;;6.25;5.50;;;;;;;13.21;40.42;99809.03;4126041;28;20297;-52
2022/03/26 07:50:02;;;;;;;9.50;7.70;;;;;;;11.95;42.84;99808.34;4123642;28;20210;-50
2022/03/26 07:52:04;;;;;;;6.13;5.50;;;;;;;13.06;41.38;99803.13;4111611;28;20234;-52
2022/03/26 07:54:06;;;;;;;5.88;5.28;;;;;;;14.05;41.33;99809.47;4111883;28;20210;-49
2022/03/26 07:56:08;;;;;;;9.27;6.20;;;;;;;14.70;40.11;99805.38;4108655;28;20274;-50
2022/03/26 07:58:10;;;;;;;7.18;5.90;;;;;;;14.61;40.60;99809.59;4110766;28;20207;-50
2022/03/26 08:00:12;;;;;;;7.75;6.93;;;;;;;15.25;39.47;99814.72;4111689;28;20203;-50
2022/03/26 08:02:13;;;;;;;6.68;5.97;;;;;;;15.86;39.08;99811.09;4114224;28;20257;-51
2022/03/26 08:04:15;;;;;;;8.98;7.28;;;;;;;16.43;38.24;99812.53;4125753;28;20229;-51
2022/03/26 08:06:18;;;;;;;7.55;5.38;;;;;;;15.61;39.04;99802.38;4109678;28;20677;-49
2022/03/26 08:08:20;;;;;;;6.10;5.55;;;;;;;16.02;38.18;99808.31;4124862;28;20706;-50
2022/03/26 08:10:22;;;;;;;6.93;6.30;;;;;;;15.37;39.13;99811.94;4124706;28;22509;-50
2022/03/26 08:12:23;;;;;;;7.53;5.97;;;;;;;15.53;38.36;99813.84;4124980;28;20293;-50
2022/03/26 08:14:25;;;;;;;9.30;6.50;;;;;;;14.51;39.70;99812.13;4124482;28;20194;-50
2022/03/26 08:16:27;;;;;;;8.35;6.22;;;;;;;14.03;41.39;99813.53;4127741;28;20233;-50
2022/03/26 08:18:29;;;;;;;6.43;5.82;;;;;;;13.87;41.36;99812.34;4108641;28;20241;-51
2022/03/26 08:20:36;;;;;;;8.27;6.25;;;;;;;15.11;39.17;99816.09;4110954;28;20245;-50
2022/03/26 08:22:41;;;;;;;6.55;5.85;;;;;;;15.88;38.99;99815.28;4126802;28;20214;-50
2022/03/26 08:24:43;;;;;;;7.40;6.63;;;;;;;14.07;39.67;99814.69;4111470;28;20273;-50
2022/03/26 08:26:44;;;;;;;7.00;6.25;;;;;;;15.71;38.91;99822.72;4127250;28;20213;-51
2022/03/26 08:28:46;;;;;;;6.85;5.60;;;;;;;16.61;37.46;99809.41;4127329;28;20688;-50
2022/03/26 08:30:48;;;;;;;7.05;5.50;;;;;;;16.17;38.12;99814.03;4110858;28;20215;-50
2022/03/26 08:32:50;;;;;;;9.02;6.45;;;;;;;15.58;38.49;99820.31;4094680;28;20215;-51
2022/03/26 08:34:52;;;;;;;6.80;6.10;;;;;;;16.26;36.96;99825.50;4112699;28;20589;-50
2022/03/26 08:36:53;;;;;;;7.95;7.03;;;;;;;15.06;37.85;99816.03;4109560;28;20207;-50
2022/03/26 08:38:55;;;;;;;7.22;6.50;;;;;;;14.54;38.74;99816.31;4128485;28;20220;-50
2022/03/26 08:40:57;;;;;;;7.75;6.65;;;;;;;14.83;39.02;99816.09;4111661;28;20266;-50
2022/03/26 08:43:00;;;;;;;5.93;5.32;;;;;;;14.64;39.09;99811.84;4128198;28;20692;-50
2022/03/26 08:45:02;;;;;;;8.02;7.20;;;;;;;14.17;39.60;99815.78;4126601;28;20210;-50
2022/03/26 08:47:05;;;;;;;6.20;5.57;;;;;;;14.76;39.36;99820.94;4125482;28;20206;-51
2022/03/26 08:49:07;;;;;;;7.07;6.38;;;;;;;14.19;39.39;99824.69;4126270;28;20320;-50
2022/03/26 08:51:09;;;;;;;7.63;6.97;;;;;;;14.73;39.65;99826.94;4110029;28;20261;-50
2022/03/26 08:53:11;;;;;;;6.53;5.93;;;;;;;15.27;38.98;99823.59;4109755;28;20592;-50
2022/03/26 08:55:13;;;;;;;8.27;6.90;;;;;;;15.73;37.46;99831.59;4122201;28;20210;-51
2022/03/26 08:57:15;;;;;;;8.05;7.30;;;;;;;15.29;37.59;99828.84;4107290;28;20246;-49
2022/03/26 08:59:17;;;;;;;7.13;6.28;;;;;;;14.90;38.19;99827.00;4120475;28;20676;-50
2022/03/26 09:01:18;;;;;;;9.02;7.25;;;;;;;14.91;39.21;99826.75;4120243;28;20272;-50
2022/03/26 09:03:21;;;;;;;7.38;6.65;;;;;;;14.77;38.66;99814.34;4104520;28;20211;-50
2022/03/26 09:05:29;;;;;;;8.45;6.63;;;;;;;15.04;39.17;99823.69;4106907;28;20222;-50
2022/03/26 09:07:31;;;;;;;7.05;6.28;;;;;;;16.21;37.85;99820.75;4114733;28;20260;-56
2022/03/26 09:09:33;;;;;;;11.95;6.53;;;;;;;15.96;36.54;99823.13;4102560;28;20251;-56
2022/03/26 09:11:35;;;;;;;7.65;6.93;;;;;;;15.68;38.03;99820.47;4117830;28;20320;-54
2022/03/26 09:13:37;;;;;;;7.35;6.55;;;;;;;14.75;37.61;99813.75;4114090;28;20726;-55
2022/03/26 09:15:39;;;;;;;11.48;9.68;;;;;;;15.00;37.96;99817.00;4121664;28;20572;-54
2022/03/26 09:17:41;;;;;;;8.90;7.45;;;;;;;15.42;37.45;99821.13;4118476;28;20266;-55
2022/03/26 09:19:43;;;;;;;7.38;6.68;;;;;;;14.76;38.12;99809.91;4103475;28;20301;-56
2022/03/26 09:21:46;;;;;;;9.10;7.85;;;;;;;14.29;38.88;99813.06;4119569;28;20222;-55
2022/03/26 09:23:48;;;;;;;8.68;6.25;;;;;;;15.29;37.62;99818.66;4125578;28;20244;-55
2022/03/26 09:25:50;;;;;;;7.57;6.88;;;;;;;14.98;38.01;99824.69;4125587;28;20202;-55
2022/03/26 09:27:52;;;;;;;7.07;6.38;;;;;;;15.39;37.66;99816.13;4121516;28;20646;-56
2022/03/26 09:29:53;;;;;;;8.80;7.32;;;;;;;15.62;37.12;99813.19;4124731;28;20210;-55
2022/03/26 09:31:55;;;;;;;11.20;7.57;;;;;;;15.65;37.27;99826.50;4123200;28;20810;-56
2022/03/26 09:33:57;;;;;;;8.07;7.25;;;;;;;15.56;37.72;99821.66;4107107;28;20229;-55
2022/03/26 09:35:59;;;;;;;9.35;6.97;;;;;;;15.75;37.93;99825.84;4124583;28;20328;-56
2022/03/26 09:38:00;;;;;;;8.80;6.55;;;;;;;15.61;37.10;99814.28;4127095;28;20262;-56
2022/03/26 09:40:04;;;;;;;6.88;6.18;;;;;;;15.85;36.47;99815.78;4109666;28;20210;-53